createdAt,value
2022-09-26T00:00:20.938Z,98611.50
2022-09-26T00:02:48.632Z,98613.28
2022-09-26T00:05:16.523Z,98610.22
2022-09-26T00:07:44.065Z,98609.59
2022-09-26T00:10:11.582Z,98609.44
2022-09-26T00:12:40.556Z,98604.53
2022-09-26T00:15:09.211Z,98599.41
2022-09-26T00:17:36.836Z,98597.94
2022-09-26T00:20:05.283Z,98599.63
2022-09-26T00:22:32.878Z,98601.41
2022-09-26T00:25:00.445Z,98602.06
2022-09-26T00:27:28.112Z,98606.34
2022-09-26T00:29:57.027Z,98601.06
2022-09-26T00:32:24.661Z,98592.41
2022-09-26T00:34:52.190Z,98597.53
2022-09-26T00:37:19.895Z,98597.03
2022-09-26T00:39:47.467Z,98596.31
2022-09-26T00:42:15.893Z,98593.19
2022-09-26T00:44:46.938Z,98589.63
2022-09-26T00:47:41.829Z,98589.34
2022-09-26T00:50:14.854Z,98587.66
2022-09-26T00:52:44.795Z,98584.91
2022-09-26T00:55:14.961Z,98577.66
2022-09-26T00:57:46.454Z,98580.63
2022-09-26T01:00:15.840Z,98572.91
2022-09-26T01:02:46.875Z,98569.84
2022-09-26T01:05:16.970Z,98565.56
2022-09-26T01:07:45.085Z,98564.78
2022-09-26T01:10:13.072Z,98552.72
2022-09-26T01:12:40.670Z,98568.00
2022-09-26T01:15:09.400Z,98558.97
2022-09-26T01:17:37.951Z,98555.47
2022-09-26T01:20:18.738Z,98554.00
2022-09-26T01:23:11.895Z,98547.19
2022-09-26T01:26:12.221Z,98543.69
2022-09-26T01:28:53.480Z,98536.47
2022-09-26T01:31:25.300Z,98538.09
2022-09-26T01:34:03.571Z,98516.25
2022-09-26T01:36:46.535Z,98538.44
2022-09-26T01:39:22.965Z,98531.50
2022-09-26T01:41:59.136Z,98529.56
2022-09-26T01:44:32.163Z,98532.34
2022-09-26T01:47:04.371Z,98533.34
2022-09-26T01:49:37.498Z,98527.88
2022-09-26T01:52:07.285Z,98519.63
2022-09-26T01:54:38.319Z,98508.53
2022-09-26T01:57:08.720Z,98512.59
2022-09-26T01:59:39.896Z,98507.53
2022-09-26T02:02:15.860Z,98505.88
2022-09-26T02:04:44.013Z,98500.56
2022-09-26T02:07:13.849Z,98499.00
2022-09-26T02:09:44.667Z,98496.66
2022-09-26T02:12:15.601Z,98483.69
2022-09-26T02:14:44.531Z,98490.22
2022-09-26T02:17:16.163Z,98483.34
2022-09-26T02:19:49.394Z,98489.53
2022-09-26T02:22:17.428Z,98477.44
2022-09-26T02:24:45.782Z,98480.56
2022-09-26T02:27:13.962Z,98479.47
2022-09-26T02:29:44.506Z,98467.09
2022-09-26T02:32:16.071Z,98474.91
2022-09-26T02:34:46.106Z,98449.44
2022-09-26T02:37:14.782Z,98460.38
2022-09-26T02:39:43.531Z,98462.16
2022-09-26T02:42:18.254Z,98458.69
2022-09-26T02:44:56.449Z,98456.13
2022-09-26T02:48:02.914Z,98462.38
2022-09-26T02:50:41.583Z,98451.28
2022-09-26T02:53:20.120Z,98448.19
2022-09-26T02:55:52.727Z,98443.69
2022-09-26T02:58:23.115Z,98444.13
2022-09-26T03:00:58.784Z,98434.63
2022-09-26T03:03:31.838Z,98441.56
2022-09-26T03:06:02.036Z,98445.25
2022-09-26T03:08:30.832Z,98430.72
2022-09-26T03:11:03.402Z,98429.16
2022-09-26T03:13:35.208Z,98427.03
2022-09-26T03:16:03.524Z,98420.41
2022-09-26T03:18:36.663Z,98419.72
2022-09-26T03:21:05.882Z,98429.06
2022-09-26T03:23:33.564Z,98409.84
2022-09-26T03:26:02.668Z,98416.09
2022-09-26T03:28:36.860Z,98382.81
2022-09-26T03:31:05.525Z,98412.69
2022-09-26T03:33:33.091Z,98404.88
2022-09-26T03:36:00.807Z,98411.19
2022-09-26T03:38:29.779Z,98400.97
2022-09-26T03:40:58.447Z,98400.06
2022-09-26T03:43:26.772Z,98399.00
2022-09-26T03:45:54.999Z,98388.34
2022-09-26T03:48:22.743Z,98387.34
2022-09-26T03:50:50.301Z,98381.13
2022-09-26T03:53:18.827Z,98378.34
2022-09-26T03:55:47.987Z,98368.63
2022-09-26T03:58:15.675Z,98366.50
2022-09-26T04:00:43.326Z,98352.44
2022-09-26T04:03:10.950Z,98356.63
2022-09-26T04:05:38.565Z,98349.59
2022-09-26T04:08:06.224Z,98348.59
2022-09-26T04:10:33.888Z,98347.47
2022-09-26T04:13:03.049Z,98340.88
2022-09-26T04:15:30.900Z,98303.59
2022-09-26T04:17:58.435Z,98340.47
2022-09-26T04:20:26.069Z,98340.53
2022-09-26T04:22:53.619Z,98338.13
2022-09-26T04:25:21.159Z,98339.91
2022-09-26T04:27:48.738Z,98340.97
2022-09-26T04:30:17.716Z,98326.28
2022-09-26T04:32:45.286Z,98318.25
2022-09-26T04:35:12.816Z,98321.44
2022-09-26T04:37:41.135Z,98316.97
2022-09-26T04:40:11.053Z,98309.41
2022-09-26T04:42:38.628Z,98305.84
2022-09-26T04:45:07.232Z,98304.34
2022-09-26T04:47:36.281Z,98304.50
2022-09-26T04:50:03.984Z,98299.19
2022-09-26T04:52:31.499Z,98298.81
2022-09-26T04:54:59.006Z,98296.91
2022-09-26T04:57:27.617Z,98298.03
2022-09-26T04:59:55.194Z,98299.13
2022-09-26T05:02:22.768Z,98289.69
2022-09-26T05:04:51.761Z,98293.00
2022-09-26T05:07:19.425Z,98288.97
2022-09-26T05:09:47.831Z,98289.06
2022-09-26T05:12:15.740Z,98287.06
2022-09-26T05:14:44.288Z,98281.72
2022-09-26T05:17:11.938Z,98289.53
2022-09-26T05:19:39.464Z,98272.66
2022-09-26T05:22:08.313Z,98274.16
2022-09-26T05:24:53.568Z,98272.94
2022-09-26T05:27:21.159Z,98271.75
2022-09-26T05:29:48.672Z,98271.03
2022-09-26T05:32:20.672Z,98269.41
2022-09-26T05:34:48.909Z,98270.97
2022-09-26T05:37:17.772Z,98269.13
2022-09-26T05:40:03.016Z,98269.69
2022-09-26T05:42:30.557Z,98272.88
2022-09-26T05:45:01.961Z,98269.13
2022-09-26T05:47:32.237Z,98266.00
2022-09-26T05:49:59.737Z,98272.25
2022-09-26T05:52:30.848Z,98267.78
2022-09-26T05:54:59.111Z,98265.94
2022-09-26T05:57:26.717Z,98266.94
2022-09-26T05:59:54.283Z,98259.91
2022-09-26T06:02:21.842Z,98267.28
2022-09-26T06:04:49.567Z,98261.84
2022-09-26T06:07:17.117Z,98263.38
2022-09-26T06:09:46.026Z,98257.69
2022-09-26T06:12:15.184Z,98257.84
2022-09-26T06:14:46.655Z,98256.56
2022-09-26T06:17:14.339Z,98256.81
2022-09-26T06:19:41.874Z,98244.41
2022-09-26T06:22:09.374Z,98252.22
2022-09-26T06:24:36.930Z,98242.88
2022-09-26T06:27:05.896Z,98241.72
2022-09-26T06:29:33.523Z,98239.34
2022-09-26T06:32:01.367Z,98240.81
2022-09-26T06:34:28.968Z,98241.91
2022-09-26T06:36:56.512Z,98241.91
2022-09-26T06:39:24.090Z,98234.09
2022-09-26T06:41:53.052Z,98229.09
2022-09-26T06:44:23.801Z,98233.25
2022-09-26T06:46:51.484Z,98234.25
2022-09-26T06:49:19.159Z,98225.88
2022-09-26T06:51:48.851Z,98233.34
2022-09-26T06:54:16.418Z,98226.97
2022-09-26T06:56:44.001Z,98230.63
2022-09-26T06:59:12.153Z,98227.84
2022-09-26T07:01:41.435Z,98230.06
2022-09-26T07:04:09.214Z,98227.94
2022-09-26T07:06:37.720Z,98220.28
2022-09-26T07:09:09.804Z,98216.81
2022-09-26T07:12:02.718Z,98222.41
2022-09-26T07:14:27.922Z,98215.44
2022-09-26T07:16:56.827Z,98209.75
2022-09-26T07:19:24.342Z,98212.44
2022-09-26T07:21:51.897Z,98210.97
2022-09-26T07:24:19.422Z,98210.16
2022-09-26T07:26:47.017Z,98206.19
2022-09-26T07:29:14.706Z,98204.22
2022-09-26T07:31:42.357Z,98210.19
2022-09-26T07:34:15.848Z,98209.34
2022-09-26T07:36:47.374Z,98205.03
2022-09-26T07:39:15.113Z,98197.97
2022-09-26T07:41:45.827Z,98199.09
2022-09-26T07:47:18.878Z,98201.56
2022-09-26T07:50:05.520Z,98201.28
2022-09-26T07:52:33.097Z,98196.38
2022-09-26T07:55:00.888Z,98197.78
2022-09-26T07:57:33.709Z,98194.38
2022-09-26T08:00:01.437Z,98193.16
2022-09-26T08:02:34.459Z,98190.44
2022-09-26T08:05:05.088Z,98182.06
2022-09-26T08:07:33.341Z,98184.03
2022-09-26T08:10:01.757Z,98174.94
2022-09-26T08:12:29.733Z,98184.72
2022-09-26T08:14:57.241Z,98173.00
2022-09-26T08:17:24.774Z,98181.06
2022-09-26T08:19:52.304Z,98176.91
2022-09-26T08:22:21.147Z,98177.63
2022-09-26T08:24:50.850Z,98175.97
2022-09-26T08:27:19.120Z,98169.50
2022-09-26T08:29:48.414Z,98163.94
2022-09-26T08:32:18.600Z,98161.69
2022-09-26T08:34:46.973Z,98169.88
2022-09-26T08:37:14.534Z,98166.31
2022-09-26T08:39:43.517Z,98168.81
2022-09-26T08:42:29.734Z,98156.06
2022-09-26T08:45:30.378Z,98168.63
2022-09-26T08:48:04.916Z,98168.22
2022-09-26T08:50:38.401Z,98163.13
2022-09-26T08:53:09.718Z,98167.06
2022-09-26T08:55:43.868Z,98163.47
2022-09-26T08:58:16.752Z,98160.50
2022-09-26T09:00:45.015Z,98149.16
2022-09-26T09:03:21.580Z,98164.72
2022-09-26T09:05:51.088Z,98159.75
2022-09-26T09:08:22.429Z,98159.44
2022-09-26T09:10:56.666Z,98155.41
2022-09-26T09:13:38.768Z,98151.72
2022-09-26T09:16:19.771Z,98152.56
2022-09-26T09:18:55.300Z,98149.38
2022-09-26T09:21:40.777Z,98147.81
2022-09-26T09:24:19.904Z,98139.34
2022-09-26T09:30:15.745Z,98126.16
2022-09-26T09:32:49.353Z,98120.06
2022-09-26T09:35:20.769Z,98111.53
2022-09-26T09:37:50.961Z,98118.34
2022-09-26T09:40:25.720Z,98107.22
2022-09-26T09:42:58.671Z,98102.16
2022-09-26T09:45:30.901Z,98106.81
2022-09-26T09:47:58.616Z,98099.22
2022-09-26T09:50:33.673Z,98102.03
2022-09-26T09:53:07.783Z,98091.69
2022-09-26T09:55:39.786Z,98094.72
2022-09-26T09:58:17.794Z,98086.16
2022-09-26T10:00:51.298Z,98094.75
2022-09-26T10:03:25.739Z,98094.97
2022-09-26T10:05:56.741Z,98082.78
2022-09-26T10:08:31.237Z,98072.28
2022-09-26T10:11:09.083Z,98073.22
2022-09-26T10:13:38.892Z,98078.63
2022-09-26T10:16:07.931Z,98070.47
2022-09-26T10:18:53.411Z,98071.47
2022-09-26T10:21:21.278Z,98058.66
2022-09-26T10:23:50.347Z,98060.81
2022-09-26T10:26:34.687Z,98060.94
2022-09-26T10:29:08.097Z,98055.13
2022-09-26T10:31:42.007Z,98061.91
2022-09-26T10:34:23.420Z,98050.88
2022-09-26T10:36:50.938Z,98040.22
2022-09-26T10:39:37.931Z,98040.50
2022-09-26T10:42:15.408Z,98055.28
2022-09-26T10:44:45.958Z,98052.66
2022-09-26T10:47:15.347Z,98046.38
2022-09-26T10:49:50.994Z,98048.91
2022-09-26T10:52:23.668Z,98046.38
2022-09-26T10:54:57.289Z,98048.31
2022-09-26T10:57:28.479Z,98052.16
2022-09-26T10:59:59.589Z,98050.59
2022-09-26T11:02:28.342Z,98048.19
2022-09-26T11:05:17.280Z,98038.41
2022-09-26T11:07:47.180Z,98042.53
2022-09-26T11:10:16.301Z,98030.81
2022-09-26T11:12:57.477Z,98043.25
2022-09-26T11:15:28.544Z,98036.13
2022-09-26T11:17:56.749Z,98030.22
2022-09-26T11:20:38.974Z,98023.56
2022-09-26T11:23:14.553Z,98031.28
2022-09-26T11:28:40.236Z,98015.84
2022-09-26T11:31:25.894Z,98014.31
2022-09-26T11:37:03.396Z,98006.09
2022-09-26T11:39:42.450Z,98002.59
2022-09-26T11:42:22.242Z,98001.75
2022-09-26T11:44:55.488Z,97991.00
2022-09-26T11:47:59.496Z,97987.50
2022-09-26T11:50:39.641Z,97985.34
2022-09-26T11:53:35.736Z,97973.16
2022-09-26T11:56:40.576Z,97968.84
2022-09-26T11:59:23.530Z,97957.03
2022-09-26T12:01:55.767Z,97960.63
2022-09-26T12:04:55.123Z,97952.09
2022-09-26T12:07:26.470Z,97957.50
2022-09-26T12:10:14.753Z,97965.31
2022-09-26T12:12:45.714Z,97949.03
2022-09-26T12:15:23.593Z,97949.84
2022-09-26T12:17:59.453Z,97949.59
2022-09-26T12:20:34.346Z,97947.00
2022-09-26T12:23:08.772Z,97931.53
2022-09-26T12:25:42.326Z,97933.50
2022-09-26T12:28:21.950Z,97916.16
2022-09-26T12:30:58.229Z,97915.06
2022-09-26T12:33:53.793Z,97910.13
2022-09-26T12:36:31.240Z,97901.31
2022-09-26T12:39:09.497Z,97896.63
2022-09-26T12:41:55.220Z,97893.13
2022-09-26T12:44:35.297Z,97882.03
2022-09-26T12:47:14.959Z,97882.50
2022-09-26T12:50:02.334Z,97874.91
2022-09-26T12:52:41.465Z,97873.81
2022-09-26T12:55:17.844Z,97878.06
2022-09-26T12:57:57.067Z,97871.91
2022-09-26T13:00:25.148Z,97880.09
2022-09-26T13:03:10.593Z,97874.06
2022-09-26T13:05:58.008Z,97863.59
2022-09-26T13:08:34.054Z,97863.56
2022-09-26T13:11:10.324Z,97854.16
2022-09-26T13:14:08.967Z,97852.97
2022-09-26T13:16:46.868Z,97843.56
2022-09-26T13:19:23.512Z,97838.25
2022-09-26T13:21:55.410Z,97830.19
2022-09-26T13:24:26.024Z,97818.00
2022-09-26T13:27:00.480Z,97819.19
2022-09-26T13:29:31.872Z,97802.44
2022-09-26T13:32:11.081Z,97805.59
2022-09-26T13:34:41.285Z,97803.78
2022-09-26T13:37:13.437Z,97805.22
2022-09-26T13:39:49.007Z,97789.31
2022-09-26T13:42:21.214Z,97786.94
2022-09-26T13:44:57.436Z,97783.91
2022-09-26T13:47:33.382Z,97780.78
2022-09-26T13:50:05.144Z,97766.59
2022-09-26T13:52:52.170Z,97767.41
2022-09-26T13:55:22.143Z,97772.78
2022-09-26T13:57:52.330Z,97768.25
2022-09-26T14:00:57.564Z,97764.03
2022-09-26T14:03:43.162Z,97758.56
2022-09-26T14:06:25.553Z,97756.88
2022-09-26T14:09:25.099Z,97748.78
2022-09-26T14:12:19.231Z,97748.06
2022-09-26T14:14:52.054Z,97741.59
2022-09-26T14:18:02.270Z,97746.06
2022-09-26T14:20:32.343Z,97731.78
2022-09-26T14:23:02.009Z,97731.16
2022-09-26T14:25:57.497Z,97728.81
2022-09-26T14:28:37.084Z,97725.44
2022-09-26T14:31:43.832Z,97722.66
2022-09-26T14:34:16.981Z,97718.41
2022-09-26T14:36:45.736Z,97721.94
2022-09-26T14:39:26.909Z,97721.13
2022-09-26T14:41:55.114Z,97710.91
2022-09-26T14:44:24.497Z,97708.34
2022-09-26T14:46:54.024Z,97706.28
2022-09-26T14:49:24.503Z,97706.41
2022-09-26T14:51:59.733Z,97696.34
2022-09-26T14:54:31.943Z,97692.34
2022-09-26T14:57:01.971Z,97679.41
2022-09-26T14:59:44.154Z,97676.22
2022-09-26T15:02:21.086Z,97674.56
2022-09-26T15:05:00.123Z,97676.78
2022-09-26T15:07:28.424Z,97673.94
2022-09-26T15:09:58.602Z,97665.72
2022-09-26T15:12:30.782Z,97654.53
2022-09-26T15:15:10.672Z,97652.84
2022-09-26T15:17:41.640Z,97651.06
2022-09-26T15:20:14.597Z,97648.44
2022-09-26T15:22:42.680Z,97651.13
2022-09-26T15:25:11.909Z,97643.19
2022-09-26T15:27:46.236Z,97637.81
2022-09-26T15:30:20.101Z,97627.31
2022-09-26T15:32:49.096Z,97636.53
2022-09-26T15:35:17.588Z,97629.84
2022-09-26T15:37:45.881Z,97623.66
2022-09-26T15:40:16.478Z,97626.38
2022-09-26T15:42:58.772Z,97622.94
2022-09-26T15:45:33.167Z,97615.75
2022-09-26T15:48:03.980Z,97612.28
2022-09-26T15:50:43.876Z,97618.69
2022-09-26T15:53:23.900Z,97615.97
2022-09-26T15:55:56.436Z,97612.94
2022-09-26T15:58:27.843Z,97601.38
2022-09-26T16:01:00.156Z,97599.97
2022-09-26T16:03:48.368Z,97601.41
2022-09-26T16:06:32.245Z,97598.75
2022-09-26T16:09:05.803Z,97599.84
2022-09-26T16:11:33.962Z,97600.69
2022-09-26T16:14:02.018Z,97595.81
2022-09-26T16:16:33.019Z,97592.78
2022-09-26T16:19:03.166Z,97600.97
2022-09-26T16:21:33.894Z,97597.13
2022-09-26T16:24:22.296Z,97586.91
2022-09-26T16:26:50.746Z,97574.28
2022-09-26T16:29:30.279Z,97580.91
2022-09-26T16:31:59.476Z,97575.59
2022-09-26T16:34:27.118Z,97572.00
2022-09-26T16:36:55.158Z,97567.69
2022-09-26T16:39:24.375Z,97569.97
2022-09-26T16:42:02.296Z,97563.13
2022-09-26T16:44:35.905Z,97567.47
2022-09-26T16:47:07.386Z,97563.13
2022-09-26T16:49:46.865Z,97554.47
2022-09-26T16:52:23.707Z,97548.00
2022-09-26T16:54:52.036Z,97553.16
2022-09-26T16:57:22.354Z,97544.63
2022-09-26T16:59:50.889Z,97543.66
2022-09-26T17:02:20.303Z,97541.03
2022-09-26T17:04:50.002Z,97543.44
2022-09-26T17:07:17.678Z,97547.16
2022-09-26T17:09:45.344Z,97552.81
2022-09-26T17:12:17.998Z,97549.81
2022-09-26T17:14:48.023Z,97550.16
2022-09-26T17:17:19.765Z,97546.44
2022-09-26T17:19:55.409Z,97544.41
2022-09-26T17:22:26.836Z,97549.91
2022-09-26T17:24:55.464Z,97546.91
2022-09-26T17:27:26.884Z,97549.41
2022-09-26T17:29:58.160Z,97533.94
2022-09-26T17:32:29.447Z,97527.22
2022-09-26T17:34:59.822Z,97537.16
2022-09-26T17:37:28.529Z,97537.72
2022-09-26T17:39:56.635Z,97533.91
2022-09-26T17:42:25.111Z,97526.78
2022-09-26T17:44:52.902Z,97528.47
2022-09-26T17:47:21.101Z,97527.25
2022-09-26T17:49:51.857Z,97527.69
2022-09-26T17:52:27.043Z,97523.34
2022-09-26T17:54:58.392Z,97525.97
2022-09-26T17:57:29.816Z,97506.66
2022-09-26T17:59:57.742Z,97517.56
2022-09-26T18:02:31.242Z,97519.81
2022-09-26T18:05:01.271Z,97523.59
2022-09-26T18:07:35.434Z,97517.97
2022-09-26T18:10:07.079Z,97510.56
2022-09-26T18:12:35.580Z,97519.66
2022-09-26T18:15:04.729Z,97517.59
2022-09-26T18:17:32.481Z,97505.91
2022-09-26T18:20:00.165Z,97502.28
2022-09-26T18:22:31.959Z,97493.78
2022-09-26T18:25:04.638Z,97474.78
2022-09-26T18:27:32.591Z,97483.47
2022-09-26T18:30:00.251Z,97487.84
2022-09-26T18:32:31.103Z,97479.75
2022-09-26T18:34:58.979Z,97477.13
2022-09-26T18:37:27.350Z,97471.97
2022-09-26T18:40:00.143Z,97480.66
2022-09-26T18:42:31.705Z,97475.63
2022-09-26T18:45:03.461Z,97481.16
2022-09-26T18:47:32.038Z,97467.63
2022-09-26T18:49:59.754Z,97474.22
2022-09-26T18:52:27.361Z,97466.75
2022-09-26T18:55:10.231Z,97471.69
2022-09-26T18:57:55.270Z,97467.31
2022-09-26T19:00:22.931Z,97456.31
2022-09-26T19:02:51.155Z,97456.66
2022-09-26T19:05:19.366Z,97451.31
2022-09-26T19:07:47.030Z,97449.06
2022-09-26T19:10:17.749Z,97444.75
2022-09-26T19:12:45.419Z,97447.28
2022-09-26T19:15:16.530Z,97441.06
2022-09-26T19:17:44.319Z,97427.59
2022-09-26T19:20:11.920Z,97434.50
2022-09-26T19:22:39.643Z,97435.72
2022-09-26T19:25:09.492Z,97433.44
2022-09-26T19:27:43.672Z,97420.34
2022-09-26T19:30:22.164Z,97425.19
2022-09-26T19:32:51.448Z,97428.59
2022-09-26T19:35:23.923Z,97420.06
2022-09-26T19:37:51.916Z,97420.19
2022-09-26T19:40:21.368Z,97417.88
2022-09-26T19:42:50.461Z,97409.94
2022-09-26T19:45:19.620Z,97406.22
2022-09-26T19:47:48.807Z,97402.75
2022-09-26T19:50:17.746Z,97401.47
2022-09-26T19:52:45.999Z,97404.19
2022-09-26T19:55:15.987Z,97395.41
2022-09-26T19:57:44.462Z,97392.66
2022-09-26T20:00:14.625Z,97390.25
2022-09-26T20:02:42.506Z,97384.22
2022-09-26T20:05:18.097Z,97386.44
2022-09-26T20:07:45.738Z,97385.06
2022-09-26T20:10:15.922Z,97378.25
2022-09-26T20:12:43.671Z,97377.06
2022-09-26T20:15:14.049Z,97373.41
2022-09-26T20:17:59.613Z,97362.75
2022-09-26T20:20:28.060Z,97360.00
2022-09-26T20:22:56.454Z,97357.53
2022-09-26T20:25:27.151Z,97364.00
2022-09-26T20:27:55.525Z,97350.81
2022-09-26T20:30:43.373Z,97349.88
2022-09-26T20:33:13.115Z,97351.25
2022-09-26T20:35:42.871Z,97329.84
2022-09-26T20:38:16.064Z,97328.28
2022-09-26T20:40:44.739Z,97329.50
2022-09-26T20:43:16.233Z,97326.72
2022-09-26T20:45:45.303Z,97325.75
2022-09-26T20:48:19.490Z,97322.66
2022-09-26T20:50:48.402Z,97314.88
2022-09-26T20:53:18.276Z,97314.53
2022-09-26T20:55:46.167Z,97316.16
2022-09-26T20:58:13.886Z,97319.91
2022-09-26T21:00:42.174Z,97315.38
2022-09-26T21:03:13.425Z,97320.97
2022-09-26T21:05:41.230Z,97321.97
2022-09-26T21:08:12.115Z,97315.88
2022-09-26T21:10:40.035Z,97306.63
2022-09-26T21:13:07.711Z,97308.72
2022-09-26T21:15:35.361Z,97295.94
2022-09-26T21:18:03.252Z,97294.47
2022-09-26T21:20:33.582Z,97290.50
2022-09-26T21:23:02.234Z,97288.25
2022-09-26T21:25:31.727Z,97293.47
2022-09-26T21:28:01.549Z,97287.75
2022-09-26T21:30:30.313Z,97284.72
2022-09-26T21:32:59.455Z,97285.53
2022-09-26T21:35:30.103Z,97270.59
2022-09-26T21:38:00.177Z,97286.84
2022-09-26T21:40:29.601Z,97274.69
2022-09-26T21:43:01.718Z,97278.38
2022-09-26T21:45:29.438Z,97283.69
2022-09-26T21:47:58.163Z,97273.72
2022-09-26T21:50:27.470Z,97266.78
2022-09-26T21:52:58.028Z,97261.34
2022-09-26T21:55:30.919Z,97259.09
2022-09-26T21:58:01.194Z,97253.50
2022-09-26T22:00:28.840Z,97249.41
2022-09-26T22:02:59.240Z,97244.75
2022-09-26T22:05:26.989Z,97242.97
2022-09-26T22:07:55.823Z,97241.63
2022-09-26T22:10:23.515Z,97238.38
2022-09-26T22:12:53.251Z,97228.44
2022-09-26T22:15:21.118Z,97234.31
2022-09-26T22:17:48.808Z,97235.53
2022-09-26T22:20:16.714Z,97232.78
2022-09-26T22:22:44.415Z,97226.31
2022-09-26T22:25:15.125Z,97219.09
2022-09-26T22:27:42.841Z,97217.56
2022-09-26T22:30:13.834Z,97219.06
2022-09-26T22:32:41.497Z,97215.25
2022-09-26T22:35:09.519Z,97205.63
2022-09-26T22:37:39.249Z,97225.97
2022-09-26T22:40:08.300Z,97198.06
2022-09-26T22:42:35.992Z,97213.41
2022-09-26T22:45:03.716Z,97215.91
2022-09-26T22:47:32.789Z,97213.63
2022-09-26T22:50:00.513Z,97205.47
2022-09-26T22:52:28.156Z,97203.72
2022-09-26T22:54:56.236Z,97209.44
2022-09-26T22:57:24.535Z,97211.34
2022-09-26T22:59:52.269Z,97210.63
2022-09-26T23:02:20.034Z,97203.66
2022-09-26T23:04:49.160Z,97205.91
2022-09-26T23:07:18.448Z,97200.56
2022-09-26T23:09:46.799Z,97200.81
2022-09-26T23:12:14.479Z,97198.84
2022-09-26T23:14:42.368Z,97193.19
2022-09-26T23:17:10.190Z,97182.06
2022-09-26T23:19:38.112Z,97197.06
2022-09-26T23:22:07.246Z,97188.31
2022-09-26T23:24:35.035Z,97190.44
2022-09-26T23:27:02.753Z,97187.81
2022-09-26T23:29:30.415Z,97184.34
2022-09-26T23:31:58.956Z,97194.38
2022-09-26T23:34:26.639Z,97184.00
2022-09-26T23:36:54.375Z,97175.84
2022-09-26T23:39:23.671Z,97180.03
2022-09-26T23:41:51.537Z,97175.00
2022-09-26T23:44:19.300Z,97170.13
2022-09-26T23:46:46.999Z,97174.16
2022-09-26T23:49:14.814Z,97168.50
2022-09-26T23:51:42.638Z,97164.06
2022-09-26T23:54:10.981Z,97163.84
2022-09-26T23:56:41.638Z,97153.53
2022-09-26T23:59:09.524Z,97149.97
